Time;durP1;ratioP1;P1;durP2;ratioP2;P2;SDS_P1;SDS_P2;PMS_P1;PMS_P2;Temp;Humidity;BMP_temperature;BMP_pressure;BME280_temperature;BME280_humidity;BME280_pressure;Samples;Min_cycle;Max_cycle;Signal;HPM_P1;HPM_P2
2023/08/26 00:02:04;;;;;;;6.85;2.28;;;;;;;27.37;44.20;98835.63;4790156;29;20202;-87
2023/08/26 00:04:29;;;;;;;6.18;2.17;;;;;;;27.41;43.81;98836.94;4790446;29;20190;-86
2023/08/26 00:06:55;;;;;;;4.13;1.83;;;;;;;27.38;43.84;98839.16;4790503;29;20190;-87
2023/08/26 00:09:20;;;;;;;4.05;1.85;;;;;;;27.33;44.40;98842.41;4808533;29;20190;-87
2023/08/26 00:11:46;;;;;;;4.60;2.00;;;;;;;27.33;44.70;98841.63;4793762;29;20187;-86
2023/08/26 00:14:11;;;;;;;4.70;2.60;;;;;;;27.19;44.26;98832.59;4809377;29;20185;-87
2023/08/26 00:16:36;;;;;;;6.00;2.22;;;;;;;27.10;44.51;98839.09;4808724;29;20197;-87
2023/08/26 00:19:02;;;;;;;10.15;2.13;;;;;;;27.05;44.05;98840.72;4793631;29;20641;-86
2023/08/26 00:21:28;;;;;;;9.95;1.83;;;;;;;27.03;44.35;98840.91;4809187;29;20217;-87
2023/08/26 00:23:55;;;;;;;3.72;1.83;;;;;;;26.91;44.51;98834.38;4794094;29;20195;-87
2023/08/26 00:26:22;;;;;;;5.85;1.95;;;;;;;26.79;44.58;98836.75;4791642;30;20189;-87
2023/08/26 00:28:49;;;;;;;5.30;2.10;;;;;;;26.77;44.79;98837.94;4790158;30;20694;-87
2023/08/26 00:31:15;;;;;;;5.40;2.60;;;;;;;26.67;45.09;98837.41;4791050;30;20586;-87
2023/08/26 00:33:42;;;;;;;5.20;2.25;;;;;;;26.72;45.99;98832.28;4790996;29;20221;-87
2023/08/26 00:36:08;;;;;;;4.55;2.30;;;;;;;26.76;46.67;98834.41;4791218;30;20261;-87
2023/08/26 00:38:35;;;;;;;4.53;1.92;;;;;;;26.83;45.69;98832.63;4789961;30;20187;-87
2023/08/26 00:41:02;;;;;;;6.18;2.08;;;;;;;26.96;45.89;98831.13;4802204;29;20225;-87
2023/08/26 00:43:28;;;;;;;5.72;2.00;;;;;;;26.99;45.46;98828.84;4809146;29;20618;-87
2023/08/26 00:45:55;;;;;;;6.90;2.60;;;;;;;27.07;45.81;98825.22;4792900;29;20182;-87
2023/08/26 00:48:22;;;;;;;5.47;2.60;;;;;;;27.14;45.52;98823.44;4793163;29;20705;-87
2023/08/26 00:50:52;;;;;;;3.83;2.10;;;;;;;27.16;45.76;98826.75;4793548;29;20274;-87
2023/08/26 00:53:20;;;;;;;5.72;1.92;;;;;;;27.16;46.24;98826.75;4792632;29;20197;-87
2023/08/26 00:55:48;;;;;;;8.50;2.50;;;;;;;27.18;46.70;98825.53;4807741;29;20571;-87
2023/08/26 00:58:15;;;;;;;7.00;2.35;;;;;;;27.16;46.65;98827.59;4808651;29;20182;-87
2023/08/26 01:00:43;;;;;;;4.90;2.50;;;;;;;27.10;48.23;98828.34;4792517;29;20689;-87
2023/08/26 01:03:09;;;;;;;4.65;2.45;;;;;;;27.06;46.62;98829.78;4808218;29;20244;-87
2023/08/26 01:05:36;;;;;;;7.10;2.00;;;;;;;27.03;47.20;98835.53;4807890;29;20187;-87
2023/08/26 01:08:04;;;;;;;5.22;2.22;;;;;;;27.00;46.28;98827.84;4807596;29;20607;-87
2023/08/26 01:10:47;;;;;;;5.20;2.58;;;;;;;26.96;45.64;98834.66;4807364;29;20556;-87
2023/08/26 01:13:18;;;;;;;5.80;2.70;;;;;;;26.89;46.72;98822.97;4808495;29;20207;-87
2023/08/26 01:15:49;;;;;;;5.97;2.22;;;;;;;26.91;47.63;98823.63;4807471;29;20213;-87
2023/08/26 01:18:15;;;;;;;4.75;2.25;;;;;;;26.84;48.87;98817.34;4807760;29;20183;-87
2023/08/26 01:20:42;;;;;;;3.17;1.88;;;;;;;26.73;48.00;98815.09;4791611;29;20214;-87
2023/08/26 01:23:32;;;;;;;4.55;2.28;;;;;;;26.64;48.80;98818.97;4808171;29;20571;-87
2023/08/26 01:25:59;;;;;;;7.00;2.70;;;;;;;26.61;49.20;98813.94;4792182;29;20257;-88
2023/08/26 01:28:26;;;;;;;7.30;2.83;;;;;;;26.58;48.97;98812.47;4808234;29;20197;-87
2023/08/26 01:30:52;;;;;;;4.65;2.22;;;;;;;26.61;48.89;98806.72;4792151;29;20625;-87
2023/08/26 01:33:25;;;;;;;5.35;2.95;;;;;;;26.67;49.51;98803.28;4808129;29;20200;-87
2023/08/26 01:35:58;;;;;;;5.47;3.10;;;;;;;26.62;49.50;98800.34;4807098;29;20187;-87
2023/08/26 01:38:25;;;;;;;5.57;2.85;;;;;;;26.53;49.60;98795.25;4807110;29;20187;-87
2023/08/26 01:40:56;;;;;;;5.18;2.80;;;;;;;26.43;49.87;98800.09;4808034;29;20218;-87
2023/08/26 01:43:22;;;;;;;4.70;2.90;;;;;;;26.40;49.61;98803.16;4808433;29;20644;-87
2023/08/26 01:45:47;;;;;;;7.10;3.10;;;;;;;26.34;49.43;98804.75;4807911;29;20214;-88
2023/08/26 01:48:13;;;;;;;10.63;3.17;;;;;;;26.34;49.24;98806.59;4791881;29;20226;-87
2023/08/26 01:50:40;;;;;;;6.80;2.90;;;;;;;26.33;50.16;98807.63;4807642;29;20187;-87
2023/08/26 01:53:08;;;;;;;6.57;3.00;;;;;;;26.29;49.92;98809.00;4806792;29;20194;-87
2023/08/26 01:55:35;;;;;;;4.78;2.78;;;;;;;26.23;50.02;98803.38;4807693;29;20185;-87
2023/08/26 01:58:00;;;;;;;5.70;3.00;;;;;;;26.06;51.28;98804.59;4808131;29;20269;-87
2023/08/26 02:00:27;;;;;;;6.40;3.50;;;;;;;25.95;51.47;98804.22;4807842;29;20301;-87
2023/08/26 02:02:53;;;;;;;6.43;3.17;;;;;;;25.99;52.33;98798.31;4807150;29;20269;-87
2023/08/26 02:05:20;;;;;;;5.43;2.92;;;;;;;26.00;52.56;98785.69;4791863;29;20232;-87
2023/08/26 02:07:45;;;;;;;10.13;3.80;;;;;;;25.96;52.47;98801.34;4791740;29;20190;-87
2023/08/26 02:10:12;;;;;;;8.97;3.03;;;;;;;25.82;53.02;98804.03;4791372;29;20266;-87
2023/08/26 02:12:37;;;;;;;6.72;3.63;;;;;;;25.65;53.01;98801.50;4791491;29;20186;-87
2023/08/26 02:15:05;;;;;;;8.25;3.63;;;;;;;25.66;53.41;98796.97;4807500;29;20197;-87
2023/08/26 02:17:32;;;;;;;8.32;3.95;;;;;;;25.66;53.44;98799.66;4807283;29;20218;-87
2023/08/26 02:19:59;;;;;;;6.30;3.07;;;;;;;25.68;53.74;98799.50;4791360;29;20695;-87
2023/08/26 02:22:24;;;;;;;7.50;3.63;;;;;;;25.63;54.32;98800.03;4807141;29;20214;-87
2023/08/26 02:24:50;;;;;;;5.37;3.20;;;;;;;25.68;54.28;98797.66;4791321;29;20186;-87
2023/08/26 02:27:15;;;;;;;6.57;3.67;;;;;;;25.67;54.55;98792.47;4807238;29;20263;-87
2023/08/26 02:29:42;;;;;;;4.30;2.50;;;;;;;25.68;54.55;98792.28;4790942;29;20660;-87
2023/08/26 02:32:09;;;;;;;7.83;3.43;;;;;;;25.67;54.80;98790.63;4807239;29;20178;-87
2023/08/26 02:34:37;;;;;;;6.47;3.50;;;;;;;25.57;55.27;98790.06;4807428;29;20220;-87
2023/08/26 02:37:02;;;;;;;6.10;3.37;;;;;;;25.50;55.15;98791.78;4791919;29;20198;-87
2023/08/26 02:39:28;;;;;;;5.13;2.77;;;;;;;25.44;55.05;98792.50;4791013;29;20191;-88
2023/08/26 02:41:53;;;;;;;7.00;3.53;;;;;;;25.58;52.99;98799.75;4807496;29;20215;-88
2023/08/26 02:44:18;;;;;;;6.10;3.00;;;;;;;25.64;52.29;98802.56;4791339;29;20199;-87
2023/08/26 02:46:45;;;;;;;5.77;2.87;;;;;;;25.69;51.93;98801.16;4790831;29;20223;-87
2023/08/26 02:49:10;;;;;;;5.27;3.10;;;;;;;25.61;52.34;98800.22;4807011;29;20188;-88
2023/08/26 02:51:37;;;;;;;5.37;2.77;;;;;;;25.53;52.09;98796.78;4796165;29;20186;-87
2023/08/26 02:54:04;;;;;;;6.10;3.43;;;;;;;25.55;52.18;98802.84;4772963;30;20649;-87
2023/08/26 02:56:31;;;;;;;7.40;2.77;;;;;;;25.58;52.46;98805.97;4788827;30;20697;-87
2023/08/26 02:58:58;;;;;;;6.00;3.13;;;;;;;25.55;53.96;98800.97;4773216;30;20187;-87
2023/08/26 03:01:24;;;;;;;4.37;2.40;;;;;;;25.55;53.36;98806.31;4789186;30;20207;-88
2023/08/26 03:03:51;;;;;;;6.50;3.03;;;;;;;25.61;53.62;98802.06;4792742;29;20626;-87
2023/08/26 03:06:17;;;;;;;5.60;3.17;;;;;;;25.64;53.88;98804.41;4806994;29;20186;-87
2023/08/26 03:08:44;;;;;;;7.27;3.60;;;;;;;25.64;53.18;98810.59;4807129;29;20220;-87
2023/08/26 03:11:11;;;;;;;9.00;3.27;;;;;;;25.60;52.65;98808.47;4790505;29;20194;-87
2023/08/26 03:13:37;;;;;;;4.60;2.73;;;;;;;25.47;53.08;98800.22;4805570;29;20661;-87
2023/08/26 03:16:10;;;;;;;7.27;2.87;;;;;;;25.45;53.44;98813.78;4790563;29;20201;-87
2023/08/26 03:18:39;;;;;;;7.57;3.00;;;;;;;25.42;54.08;98821.38;4806968;29;20701;-87
2023/08/26 03:21:08;;;;;;;5.10;2.80;;;;;;;25.41;54.29;98817.84;4805290;29;20217;-87
2023/08/26 03:23:35;;;;;;;5.03;3.50;;;;;;;25.35;54.97;98823.09;4806559;29;20183;-87
2023/08/26 03:26:03;;;;;;;6.00;3.10;;;;;;;25.34;55.07;98821.47;4806579;29;20194;-87
2023/08/26 03:28:30;;;;;;;6.90;3.20;;;;;;;25.33;55.73;98822.47;4805409;29;20179;-88
2023/08/26 03:31:06;;;;;;;6.60;3.40;;;;;;;25.31;55.90;98824.50;4805385;29;20190;-87
2023/08/26 03:33:34;;;;;;;6.20;3.07;;;;;;;25.30;56.38;98826.34;4774666;30;20194;-87
2023/08/26 03:36:04;;;;;;;6.47;3.70;;;;;;;25.23;56.55;98827.25;4788788;30;20562;-87
2023/08/26 03:38:30;;;;;;;7.60;3.77;;;;;;;25.21;56.86;98824.72;4787582;30;20175;-87
2023/08/26 03:40:55;;;;;;;11.20;4.13;;;;;;;25.20;57.10;98822.25;4787441;30;20237;-87
2023/08/26 03:43:21;;;;;;;6.90;4.03;;;;;;;25.16;57.62;98820.94;4771805;30;20626;-87
2023/08/26 03:45:48;;;;;;;7.70;3.83;;;;;;;25.13;57.77;98815.94;4800523;29;20641;-87
2023/08/26 03:48:14;;;;;;;13.50;4.73;;;;;;;25.13;57.28;98818.63;4806111;29;20210;-87
2023/08/26 03:50:55;;;;;;;7.73;4.67;;;;;;;25.13;57.73;98829.34;4790126;29;20190;-87
2023/08/26 03:53:22;;;;;;;6.80;4.13;;;;;;;25.03;57.42;98830.41;4806343;29;20185;-88
2023/08/26 03:55:48;;;;;;;7.23;4.33;;;;;;;24.99;57.92;98836.31;4805920;29;20186;-87
2023/08/26 03:58:14;;;;;;;6.93;4.43;;;;;;;25.00;57.92;98836.13;4806053;29;20182;-87
2023/08/26 04:00:42;;;;;;;7.70;4.37;;;;;;;25.04;58.24;98837.47;4805183;29;20692;-87
2023/08/26 04:03:08;;;;;;;10.93;5.83;;;;;;;25.07;58.22;98840.78;4805048;29;20182;-87
2023/08/26 04:05:35;;;;;;;13.70;6.47;;;;;;;25.01;58.26;98842.34;4806035;29;20273;-87
2023/08/26 04:08:03;;;;;;;12.00;6.03;;;;;;;25.00;58.10;98841.50;4805812;29;20266;-87
2023/08/26 04:10:29;;;;;;;9.13;6.07;;;;;;;25.04;57.93;98842.81;4805892;29;20570;-87
2023/08/26 04:13:22;;;;;;;10.10;5.60;;;;;;;25.09;58.48;98844.97;4804997;29;20205;-87
2023/08/26 04:15:48;;;;;;;13.03;5.13;;;;;;;25.14;59.79;98852.47;4805814;29;20178;-88
2023/08/26 04:18:15;;;;;;;9.87;5.47;;;;;;;25.19;60.25;98850.06;4790220;29;20195;-87
2023/08/26 04:20:45;;;;;;;8.10;5.00;;;;;;;25.25;60.45;98852.88;4805859;29;20221;-87
2023/08/26 04:23:11;;;;;;;7.50;4.93;;;;;;;25.30;61.42;98852.31;4789892;29;20270;-87
2023/08/26 04:25:37;;;;;;;8.27;4.70;;;;;;;25.30;61.19;98846.97;4804812;29;20198;-87
2023/08/26 04:28:04;;;;;;;11.07;6.23;;;;;;;25.29;61.20;98839.94;4805768;29;20255;-87
2023/08/26 04:30:31;;;;;;;14.37;6.27;;;;;;;25.35;61.09;98849.94;4805036;29;20282;-87
2023/08/26 04:32:57;;;;;;;11.13;5.67;;;;;;;25.40;61.04;98850.22;4790063;29;20187;-87
2023/08/26 04:35:24;;;;;;;12.57;6.43;;;;;;;25.42;60.87;98850.91;4804794;29;20194;-87
2023/08/26 04:37:51;;;;;;;8.43;5.30;;;;;;;25.50;60.96;98850.84;4782364;29;20289;-87
2023/08/26 04:40:18;;;;;;;11.70;6.20;;;;;;;25.62;60.66;98857.44;4800358;29;20649;-87
2023/08/26 04:42:45;;;;;;;13.13;5.63;;;;;;;25.74;60.01;98855.97;4805195;29;20655;-87
2023/08/26 04:45:14;;;;;;;11.17;5.30;;;;;;;25.83;60.16;98865.63;4789643;29;20197;-87
2023/08/26 04:47:44;;;;;;;11.83;5.80;;;;;;;25.94;59.92;98862.47;4805220;29;20209;-87
2023/08/26 04:50:11;;;;;;;8.97;5.57;;;;;;;26.22;59.07;98860.84;4804774;29;20234;-87
2023/08/26 04:52:39;;;;;;;8.87;5.70;;;;;;;26.47;57.83;98864.03;4789135;29;20330;-87
2023/08/26 04:55:07;;;;;;;10.20;6.10;;;;;;;26.58;57.86;98866.25;4809063;29;20208;-87
2023/08/26 04:57:34;;;;;;;12.70;6.97;;;;;;;26.71;58.23;98868.25;4808140;29;20186;-87
2023/08/26 05:00:01;;;;;;;9.17;6.30;;;;;;;26.79;58.56;98865.47;4793079;29;20273;-88
2023/08/26 05:02:27;;;;;;;12.68;7.30;;;;;;;26.87;57.89;98870.75;4808698;29;20658;-87
2023/08/26 05:04:54;;;;;;;13.85;6.75;;;;;;;26.90;57.15;98878.44;4793050;29;20198;-87
2023/08/26 05:07:20;;;;;;;13.63;7.28;;;;;;;26.83;57.08;98874.84;4808931;29;20251;-87
2023/08/26 05:09:46;;;;;;;10.20;6.50;;;;;;;26.93;57.36;98882.59;4792714;29;20190;-88
2023/08/26 05:12:12;;;;;;;12.45;6.78;;;;;;;27.05;56.90;98883.75;4808200;29;20186;-88
2023/08/26 05:14:39;;;;;;;9.00;6.03;;;;;;;27.18;56.63;98875.81;4807430;29;20187;-88
2023/08/26 05:17:06;;;;;;;9.30;6.32;;;;;;;27.40;55.97;98872.97;4808811;29;20182;-87
2023/08/26 05:19:32;;;;;;;8.65;6.30;;;;;;;27.65;55.28;98877.91;4793128;29;20182;-87
2023/08/26 05:21:58;;;;;;;8.90;5.25;;;;;;;27.85;54.55;98878.91;4792392;29;20206;-88
2023/08/26 05:24:26;;;;;;;7.20;4.82;;;;;;;28.05;53.67;98863.72;4792408;29;20182;-87
2023/08/26 05:26:53;;;;;;;11.68;5.55;;;;;;;28.20;53.55;98874.41;4808183;29;20191;-88
2023/08/26 05:29:19;;;;;;;10.20;5.13;;;;;;;28.38;53.40;98872.81;4807398;29;20656;-87
2023/08/26 05:31:46;;;;;;;10.13;5.38;;;;;;;28.60;52.44;98869.00;4792337;29;20182;-88
2023/08/26 05:34:11;;;;;;;10.45;6.07;;;;;;;28.82;51.80;98866.19;4808319;29;20199;-88
2023/08/26 05:36:38;;;;;;;8.25;5.53;;;;;;;28.94;51.63;98870.78;4808264;29;20187;-87
2023/08/26 05:39:04;;;;;;;8.73;5.43;;;;;;;28.96;50.90;98875.97;4792988;29;20578;-87
2023/08/26 05:41:30;;;;;;;10.73;5.43;;;;;;;29.09;51.02;98870.59;4807536;29;20218;-87
2023/08/26 05:43:57;;;;;;;11.38;4.75;;;;;;;29.07;50.83;98870.81;4807962;29;20198;-88
2023/08/26 05:46:22;;;;;;;12.80;5.20;;;;;;;29.11;50.64;98868.53;4792077;29;20204;-88
2023/08/26 05:48:47;;;;;;;12.57;4.65;;;;;;;29.29;50.49;98871.50;4808556;29;20179;-88
2023/08/26 05:51:13;;;;;;;9.80;4.90;;;;;;;29.36;50.10;98872.34;4808472;29;20178;-88
2023/08/26 05:53:38;;;;;;;7.03;4.50;;;;;;;29.54;50.17;98877.94;4807292;29;20205;-88
2023/08/26 05:56:04;;;;;;;8.00;4.43;;;;;;;29.74;48.90;98873.34;4792218;29;20187;-88
2023/08/26 05:58:29;;;;;;;9.95;3.70;;;;;;;29.82;48.58;98878.59;4792122;29;20229;-88
2023/08/26 06:00:55;;;;;;;7.10;3.95;;;;;;;30.03;48.33;98882.09;4807988;29;20214;-88
2023/08/26 06:03:20;;;;;;;7.20;3.70;;;;;;;30.02;44.82;98872.31;4806751;29;20202;-88
2023/08/26 06:05:46;;;;;;;4.72;2.33;;;;;;;30.22;42.26;98878.50;4807203;29;20201;-88
2023/08/26 06:08:11;;;;;;;5.07;2.55;;;;;;;30.46;43.45;98868.91;4807690;29;20191;-88
2023/08/26 06:10:38;;;;;;;7.22;3.72;;;;;;;30.67;42.56;98869.44;4807691;29;20186;-88
2023/08/26 06:13:05;;;;;;;10.35;4.32;;;;;;;30.87;42.34;98872.88;4807827;29;20183;-88
2023/08/26 06:15:31;;;;;;;7.53;3.00;;;;;;;31.18;41.49;98879.41;4791541;29;20190;-88
2023/08/26 06:17:59;;;;;;;4.93;2.38;;;;;;;31.48;40.87;98885.84;4791576;29;20190;-88
2023/08/26 06:20:26;;;;;;;9.55;3.05;;;;;;;31.75;41.75;98890.03;4791349;29;20201;-87
2023/08/26 06:22:53;;;;;;;5.40;2.40;;;;;;;32.15;41.25;98891.31;4807211;29;20186;-88
2023/08/26 06:25:20;;;;;;;5.93;2.85;;;;;;;32.50;40.08;98891.56;4788280;29;20279;-88
2023/08/26 06:27:45;;;;;;;8.43;3.53;;;;;;;32.84;36.78;98890.13;4789507;30;20231;-88
2023/08/26 06:30:12;;;;;;;11.57;2.85;;;;;;;32.97;36.60;98891.84;4802354;29;20681;-88
2023/08/26 06:32:39;;;;;;;7.57;2.95;;;;;;;33.19;36.77;98890.28;4807216;29;20247;-87
2023/08/26 06:35:06;;;;;;;9.20;3.67;;;;;;;33.42;36.91;98885.75;4807201;29;20247;-87
2023/08/26 06:37:32;;;;;;;7.22;3.20;;;;;;;33.70;36.63;98893.25;4807243;29;20190;-88
2023/08/26 06:39:58;;;;;;;12.95;3.80;;;;;;;33.93;36.34;98892.47;4806918;29;20234;-88
2023/08/26 06:42:24;;;;;;;6.28;2.67;;;;;;;34.13;36.80;98897.56;4807242;29;20265;-88
2023/08/26 06:44:51;;;;;;;7.75;3.13;;;;;;;34.25;36.46;98891.03;4791041;29;20183;-88
2023/08/26 06:47:18;;;;;;;9.23;3.05;;;;;;;34.42;36.62;98893.84;4807472;29;20206;-88
2023/08/26 06:49:45;;;;;;;11.07;3.00;;;;;;;34.55;35.60;98890.88;4790965;29;20274;-89
2023/08/26 06:52:13;;;;;;;13.65;3.67;;;;;;;34.77;35.30;98893.81;4806775;29;20255;-88
2023/08/26 06:54:40;;;;;;;6.30;2.40;;;;;;;34.89;35.01;98889.13;4807394;29;20179;-88
2023/08/26 06:57:07;;;;;;;6.50;3.10;;;;;;;35.16;33.92;98893.81;4806701;29;20182;-88
2023/08/26 06:59:32;;;;;;;6.10;2.67;;;;;;;35.41;32.39;98900.75;4790857;29;20229;-89
2023/08/26 07:01:59;;;;;;;6.20;2.88;;;;;;;35.58;32.75;98901.66;4790970;29;20677;-88
2023/08/26 07:04:25;;;;;;;9.43;3.65;;;;;;;35.75;32.83;98891.56;4806743;29;20190;-89
2023/08/26 07:06:51;;;;;;;6.93;2.78;;;;;;;35.90;32.50;98893.72;4806934;29;20192;-88
2023/08/26 07:09:17;;;;;;;9.27;2.88;;;;;;;36.09;30.75;98906.84;4806571;29;20663;-89
2023/08/26 07:11:42;;;;;;;5.78;2.58;;;;;;;36.14;30.90;98900.66;4806560;29;20253;-88
2023/08/26 07:14:07;;;;;;;5.47;2.63;;;;;;;36.06;31.01;98910.06;4806860;29;20247;-88
2023/08/26 07:16:33;;;;;;;6.97;2.67;;;;;;;36.19;31.61;98903.47;4789894;29;20190;-89
2023/08/26 07:18:58;;;;;;;4.20;2.60;;;;;;;36.37;31.86;98901.25;4806658;29;20625;-89
2023/08/26 07:21:24;;;;;;;5.93;2.42;;;;;;;36.66;31.65;98896.44;4806665;29;20210;-89
2023/08/26 07:23:51;;;;;;;7.32;3.17;;;;;;;36.88;31.84;98893.72;4806239;29;20683;-88
2023/08/26 07:26:17;;;;;;;8.40;2.90;;;;;;;37.02;30.58;98889.53;4806871;29;20246;-89
2023/08/26 07:28:46;;;;;;;4.93;2.25;;;;;;;37.20;31.10;98880.97;4806331;29;20235;-89
2023/08/26 07:31:13;;;;;;;9.10;2.95;;;;;;;37.29;31.38;98882.16;4806454;29;20183;-88
2023/08/26 07:33:39;;;;;;;8.60;2.58;;;;;;;37.15;30.01;98885.56;4806570;29;20323;-90
2023/08/26 07:36:08;;;;;;;12.57;2.38;;;;;;;37.15;30.78;98880.09;4806562;29;20178;-88
2023/08/26 07:38:34;;;;;;;7.15;2.20;;;;;;;37.33;30.30;98885.19;4806231;29;20250;-88
2023/08/26 07:41:01;;;;;;;4.40;2.22;;;;;;;37.45;30.49;98883.97;4806065;29;20245;-88
2023/08/26 07:43:26;;;;;;;5.18;2.03;;;;;;;37.57;30.59;98883.81;4806477;29;20642;-89
2023/08/26 07:45:53;;;;;;;5.47;1.98;;;;;;;37.79;29.11;98878.25;4806110;29;20209;-88
2023/08/26 07:48:20;;;;;;;4.07;2.25;;;;;;;37.88;28.46;98874.78;4806175;29;20296;-88
2023/08/26 07:50:47;;;;;;;3.75;1.85;;;;;;;37.79;27.96;98879.03;4806141;29;20184;-89
2023/08/26 07:53:14;;;;;;;11.38;2.15;;;;;;;37.82;28.21;98875.78;4806280;29;20190;-88
2023/08/26 07:55:39;;;;;;;9.27;2.80;;;;;;;37.82;27.91;98878.53;4806611;29;20178;-89
2023/08/26 07:58:05;;;;;;;4.95;1.70;;;;;;;37.82;27.50;98875.78;4806323;29;20197;-89
2023/08/26 08:00:31;;;;;;;5.43;2.30;;;;;;;37.69;27.30;98876.25;4806262;29;20170;-89
2023/08/26 08:02:56;;;;;;;4.93;2.55;;;;;;;37.70;28.08;98874.34;4805680;29;20237;-88
2023/08/26 08:05:23;;;;;;;6.40;2.10;;;;;;;37.73;28.20;98871.91;4789996;29;20182;-88
2023/08/26 08:07:50;;;;;;;5.80;1.90;;;;;;;37.73;27.78;98871.09;4805843;29;20197;-88
2023/08/26 08:10:16;;;;;;;5.38;2.20;;;;;;;37.79;28.35;98876.31;4805991;29;20210;-89
2023/08/26 08:12:43;;;;;;;6.13;2.92;;;;;;;37.79;27.93;98875.50;4806215;29;20183;-88
2023/08/26 08:15:10;;;;;;;4.47;2.47;;;;;;;37.69;27.05;98873.50;4805942;29;20253;-88
2023/08/26 08:17:37;;;;;;;7.53;3.63;;;;;;;37.70;26.45;98874.34;4789953;29;20178;-89
2023/08/26 08:20:05;;;;;;;11.15;5.18;;;;;;;37.72;27.38;98877.63;4805830;29;20183;-88
2023/08/26 08:22:36;;;;;;;27.77;9.45;;;;;;;37.67;27.46;98870.22;4805725;29;20199;-89
2023/08/26 08:25:03;;;;;;;29.65;12.25;;;;;;;37.68;28.62;98869.13;4806018;29;20182;-88
2023/08/26 08:27:30;;;;;;;14.65;5.35;;;;;;;37.88;26.70;98863.84;4806008;29;20195;-88
2023/08/26 08:29:58;;;;;;;5.57;2.70;;;;;;;37.63;27.72;98869.09;4809085;29;20196;-89
2023/08/26 08:32:25;;;;;;;3.97;2.13;;;;;;;37.53;29.01;98858.88;4809229;29;20556;-89
2023/08/26 08:34:52;;;;;;;4.38;2.35;;;;;;;37.66;28.82;98857.59;4793570;29;20515;-88
2023/08/26 08:37:19;;;;;;;6.43;2.35;;;;;;;37.66;29.38;98854.88;4809215;29;20252;-88
2023/08/26 08:39:45;;;;;;;4.85;2.30;;;;;;;37.74;29.06;98850.84;4808375;29;20190;-88
2023/08/26 08:42:15;;;;;;;3.65;2.10;;;;;;;37.71;29.01;98845.91;4808586;29;20210;-88
2023/08/26 08:44:43;;;;;;;3.50;2.05;;;;;;;37.86;28.15;98852.34;4809322;29;20206;-89
2023/08/26 08:47:10;;;;;;;5.63;2.42;;;;;;;37.90;29.40;98842.50;4808848;29;20221;-88
2023/08/26 08:49:37;;;;;;;4.95;2.17;;;;;;;37.94;29.37;98842.81;4809251;29;20206;-89
2023/08/26 08:52:05;;;;;;;5.35;2.22;;;;;;;38.05;29.51;98837.09;4808988;29;20182;-88
2023/08/26 08:54:33;;;;;;;3.80;1.92;;;;;;;38.06;28.02;98837.94;4809145;29;20514;-88
2023/08/26 08:56:59;;;;;;;3.35;1.90;;;;;;;38.18;29.59;98837.72;4808782;29;20201;-88
2023/08/26 08:59:27;;;;;;;4.75;2.20;;;;;;;38.21;28.14;98835.28;4792889;29;20190;-88
2023/08/26 09:01:55;;;;;;;6.90;2.38;;;;;;;38.23;28.90;98837.75;4808696;29;20213;-89
2023/08/26 09:04:22;;;;;;;7.60;3.85;;;;;;;38.39;27.84;98826.66;4808897;29;20202;-89
2023/08/26 09:06:48;;;;;;;7.15;3.70;;;;;;;38.51;27.57;98831.88;4792807;29;20221;-88
2023/08/26 09:09:18;;;;;;;6.88;2.53;;;;;;;38.50;27.36;98824.75;4808704;29;20182;-89
2023/08/26 09:11:46;;;;;;;4.57;2.05;;;;;;;38.71;25.99;98826.47;4807798;29;20179;-89
2023/08/26 09:14:13;;;;;;;5.57;1.92;;;;;;;38.83;26.56;98815.28;4808474;29;20699;-89
2023/08/26 09:16:41;;;;;;;4.28;1.83;;;;;;;38.90;28.21;98821.31;4808582;29;20182;-88
2023/08/26 09:19:11;;;;;;;4.70;2.10;;;;;;;38.92;26.21;98809.00;4808469;29;20210;-90
2023/08/26 09:21:47;;;;;;;7.57;2.40;;;;;;;38.81;26.65;98807.34;4808473;29;20206;-89
2023/08/26 09:24:17;;;;;;;9.27;2.47;;;;;;;38.76;26.81;98804.56;4808344;29;20258;-89
2023/08/26 09:26:58;;;;;;;5.30;2.63;;;;;;;38.79;27.30;98804.03;4808119;29;20179;-89
2023/08/26 09:29:25;;;;;;;8.00;2.17;;;;;;;38.50;27.66;98806.41;4808417;29;20167;-88
2023/08/26 09:31:56;;;;;;;4.03;2.00;;;;;;;38.66;27.40;98805.34;4808550;29;20190;-88
2023/08/26 09:34:29;;;;;;;6.32;2.40;;;;;;;38.79;26.54;98801.28;4808803;29;20501;-89
2023/08/26 09:36:55;;;;;;;4.47;2.25;;;;;;;38.84;26.95;98801.31;4808494;29;20183;-89
2023/08/26 09:39:23;;;;;;;7.28;2.00;;;;;;;39.07;27.22;98805.47;4808041;29;20182;-89
2023/08/26 09:41:49;;;;;;;8.10;2.33;;;;;;;39.33;25.41;98798.94;4807655;29;20206;-89
2023/08/26 09:44:16;;;;;;;6.43;2.40;;;;;;;39.39;26.00;98797.81;4808145;29;20265;-89
2023/08/26 09:46:43;;;;;;;9.27;3.53;;;;;;;39.41;26.83;98784.66;4808039;29;20196;-89
2023/08/26 09:49:14;;;;;;;3.45;2.28;;;;;;;38.98;26.53;98786.00;4808011;29;20186;-89
2023/08/26 09:51:46;;;;;;;5.75;2.97;;;;;;;39.03;27.25;98793.38;4808218;29;20179;-89
2023/08/26 09:54:14;;;;;;;4.30;2.58;;;;;;;39.17;26.71;98784.38;4808511;29;20169;-89
2023/08/26 09:56:40;;;;;;;5.45;2.75;;;;;;;39.13;27.60;98780.50;4808150;29;20190;-88
2023/08/26 09:59:06;;;;;;;5.50;3.10;;;;;;;39.36;25.86;98781.09;4792288;29;20590;-88
2023/08/26 10:01:34;;;;;;;6.43;2.80;;;;;;;39.42;26.11;98780.81;4807586;29;20213;-89
2023/08/26 10:04:08;;;;;;;8.52;3.78;;;;;;;39.54;25.71;98778.59;4807779;29;20251;-89
2023/08/26 10:06:42;;;;;;;4.93;2.85;;;;;;;39.35;27.00;98774.78;4807019;29;20213;-88
2023/08/26 10:09:19;;;;;;;4.18;2.53;;;;;;;39.27;25.85;98778.91;4807952;29;20179;-89
2023/08/26 10:11:50;;;;;;;4.68;2.58;;;;;;;39.25;26.12;98770.13;4808016;29;20227;-89
2023/08/26 10:14:19;;;;;;;15.02;4.38;;;;;;;39.29;25.13;98773.97;4791967;29;20283;-88
2023/08/26 10:16:48;;;;;;;6.13;2.65;;;;;;;39.55;27.19;98757.47;4806589;29;20565;-88
2023/08/26 10:19:14;;;;;;;4.68;2.67;;;;;;;39.89;26.45;98761.25;4807315;29;20186;-88
2023/08/26 10:21:43;;;;;;;5.95;2.72;;;;;;;39.94;25.51;98763.97;4807375;29;20677;-88
2023/08/26 10:24:09;;;;;;;6.55;3.25;;;;;;;39.95;26.64;98746.41;4807190;29;20190;-89
2023/08/26 10:26:35;;;;;;;6.25;2.72;;;;;;;39.66;26.49;98754.47;4806934;29;20190;-89
2023/08/26 10:29:02;;;;;;;5.50;2.67;;;;;;;39.84;26.60;98761.25;4807301;29;20265;-89
2023/08/26 10:31:43;;;;;;;4.47;2.63;;;;;;;39.68;26.80;98751.44;4807809;29;20682;-88
2023/08/26 10:34:11;;;;;;;4.55;2.45;;;;;;;39.83;25.93;98757.69;4807224;29;20209;-88
2023/08/26 10:36:38;;;;;;;8.63;2.47;;;;;;;39.67;25.93;98747.88;4807419;29;20626;-88
2023/08/26 10:39:16;;;;;;;7.95;2.25;;;;;;;40.00;25.72;98748.31;4807152;29;20239;-89
2023/08/26 10:42:23;;;;;;;5.35;2.75;;;;;;;40.13;25.15;98739.50;4806831;29;20265;-88
2023/08/26 10:44:57;;;;;;;4.10;2.65;;;;;;;39.94;27.53;98742.00;4806612;29;20233;-88
2023/08/26 10:47:45;;;;;;;4.93;2.67;;;;;;;40.03;25.40;98725.78;4807515;29;20291;-89
2023/08/26 10:50:27;;;;;;;4.47;2.58;;;;;;;39.92;27.04;98742.31;4807250;29;20167;-89
2023/08/26 10:53:16;;;;;;;5.20;2.72;;;;;;;39.89;26.18;98737.38;4806986;29;20174;-88
2023/08/26 10:55:43;;;;;;;8.10;3.08;;;;;;;40.01;26.60;98737.06;4806907;29;20708;-89
2023/08/26 10:58:16;;;;;;;3.72;2.58;;;;;;;39.90;25.92;98732.72;4806855;29;20189;-89
2023/08/26 11:00:48;;;;;;;4.43;2.90;;;;;;;39.94;27.51;98731.03;4806996;29;20169;-89
2023/08/26 11:03:22;;;;;;;6.18;3.17;;;;;;;40.06;27.19;98725.25;4806557;29;20171;-88
2023/08/26 11:06:05;;;;;;;5.20;2.90;;;;;;;40.37;27.24;98722.09;4806761;29;20181;-88
2023/08/26 11:08:32;;;;;;;5.10;3.20;;;;;;;40.60;26.68;98717.00;4806932;29;20182;-88
2023/08/26 11:10:59;;;;;;;4.63;2.67;;;;;;;40.83;26.33;98716.31;4806664;29;20187;-88
2023/08/26 11:13:26;;;;;;;5.35;2.83;;;;;;;41.10;26.19;98711.16;4806508;29;20213;-89
2023/08/26 11:15:53;;;;;;;6.03;2.90;;;;;;;41.21;26.11;98715.44;4806692;29;20186;-88
2023/08/26 11:18:21;;;;;;;5.57;3.15;;;;;;;41.28;24.92;98710.41;4806826;29;20189;-88
2023/08/26 11:20:49;;;;;;;4.07;2.85;;;;;;;41.03;26.07;98702.41;4805497;29;20194;-88
2023/08/26 11:23:15;;;;;;;5.60;2.83;;;;;;;40.91;26.13;98704.75;4806692;29;20229;-89
2023/08/26 11:25:42;;;;;;;4.72;3.08;;;;;;;40.85;26.66;98700.34;4806293;29;20194;-88
2023/08/26 11:28:13;;;;;;;7.05;3.03;;;;;;;40.95;26.39;98684.63;4790803;29;20186;-88
2023/08/26 11:30:43;;;;;;;7.05;3.25;;;;;;;40.95;25.21;98684.63;4806393;29;20194;-88
2023/08/26 11:33:15;;;;;;;5.80;3.22;;;;;;;41.01;25.36;98685.41;4806347;29;20183;-89
2023/08/26 11:35:42;;;;;;;4.13;2.67;;;;;;;41.31;25.06;98676.03;4805379;29;20217;-89